sensor_id;sensor_type;location;lat;lon;timestamp;P1;durP1;ratioP1;P2;durP2;ratioP2
23236;SDS011;11787;52.018;8.570;2022-12-07T00:03:04;31.60;;;20.83;;
23236;SDS011;11787;52.018;8.570;2022-12-07T00:05:29;33.65;;;22.42;;
23236;SDS011;11787;52.018;8.570;2022-12-07T00:07:55;40.92;;;24.95;;
23236;SDS011;11787;52.018;8.570;2022-12-07T00:10:21;39.63;;;25.42;;
23236;SDS011;11787;52.018;8.570;2022-12-07T00:12:46;44.13;;;26.05;;
23236;SDS011;11787;52.018;8.570;2022-12-07T00:15:12;40.42;;;24.83;;
23236;SDS011;11787;52.018;8.570;2022-12-07T00:21:00;42.53;;;26.50;;
23236;SDS011;11787;52.018;8.570;2022-12-07T00:23:30;40.00;;;24.00;;
23236;SDS011;11787;52.018;8.570;2022-12-07T00:26:02;37.33;;;23.63;;
23236;SDS011;11787;52.018;8.570;2022-12-07T00:28:29;45.25;;;27.88;;
23236;SDS011;11787;52.018;8.570;2022-12-07T00:30:59;37.30;;;23.10;;
23236;SDS011;11787;52.018;8.570;2022-12-07T00:33:30;37.85;;;24.50;;
23236;SDS011;11787;52.018;8.570;2022-12-07T00:35:56;37.10;;;25.02;;
23236;SDS011;11787;52.018;8.570;2022-12-07T00:38:23;38.40;;;25.38;;
23236;SDS011;11787;52.018;8.570;2022-12-07T00:40:56;39.25;;;25.23;;
23236;SDS011;11787;52.018;8.570;2022-12-07T00:43:23;37.03;;;25.40;;
23236;SDS011;11787;52.018;8.570;2022-12-07T00:45:49;36.20;;;24.90;;
23236;SDS011;11787;52.018;8.570;2022-12-07T00:48:14;33.13;;;21.90;;
23236;SDS011;11787;52.018;8.570;2022-12-07T00:50:40;36.58;;;22.83;;
23236;SDS011;11787;52.018;8.570;2022-12-07T00:53:05;33.10;;;22.55;;
23236;SDS011;11787;52.018;8.570;2022-12-07T00:55:34;37.50;;;24.13;;
23236;SDS011;11787;52.018;8.570;2022-12-07T00:58:00;33.55;;;21.25;;
23236;SDS011;11787;52.018;8.570;2022-12-07T01:00:26;34.80;;;23.88;;
23236;SDS011;11787;52.018;8.570;2022-12-07T01:02:52;31.50;;;22.50;;
23236;SDS011;11787;52.018;8.570;2022-12-07T01:05:18;29.60;;;20.85;;
23236;SDS011;11787;52.018;8.570;2022-12-07T01:11:06;25.98;;;19.63;;
23236;SDS011;11787;52.018;8.570;2022-12-07T01:13:33;31.05;;;22.23;;
23236;SDS011;11787;52.018;8.570;2022-12-07T01:16:00;28.80;;;18.90;;
23236;SDS011;11787;52.018;8.570;2022-12-07T01:18:27;30.38;;;20.25;;
23236;SDS011;11787;52.018;8.570;2022-12-07T01:21:01;29.05;;;19.35;;
23236;SDS011;11787;52.018;8.570;2022-12-07T01:23:32;27.92;;;20.42;;
23236;SDS011;11787;52.018;8.570;2022-12-07T01:25:59;25.10;;;18.33;;
23236;SDS011;11787;52.018;8.570;2022-12-07T01:28:26;25.25;;;18.25;;
23236;SDS011;11787;52.018;8.570;2022-12-07T01:30:58;27.95;;;19.60;;
23236;SDS011;11787;52.018;8.570;2022-12-07T01:33:26;23.80;;;16.85;;
23236;SDS011;11787;52.018;8.570;2022-12-07T01:35:53;23.98;;;17.40;;
23236;SDS011;11787;52.018;8.570;2022-12-07T01:38:19;25.05;;;18.27;;
23236;SDS011;11787;52.018;8.570;2022-12-07T01:40:44;20.30;;;16.70;;
23236;SDS011;11787;52.018;8.570;2022-12-07T01:43:19;23.40;;;16.85;;
23236;SDS011;11787;52.018;8.570;2022-12-07T01:45:46;24.23;;;16.75;;
23236;SDS011;11787;52.018;8.570;2022-12-07T01:48:12;23.48;;;16.73;;
23236;SDS011;11787;52.018;8.570;2022-12-07T01:50:42;24.20;;;16.92;;
23236;SDS011;11787;52.018;8.570;2022-12-07T01:53:09;20.40;;;15.23;;
23236;SDS011;11787;52.018;8.570;2022-12-07T01:55:37;20.27;;;15.13;;
23236;SDS011;11787;52.018;8.570;2022-12-07T01:58:07;22.02;;;15.30;;
23236;SDS011;11787;52.018;8.570;2022-12-07T02:00:34;19.40;;;14.77;;
23236;SDS011;11787;52.018;8.570;2022-12-07T02:03:02;19.38;;;14.30;;
23236;SDS011;11787;52.018;8.570;2022-12-07T02:05:34;16.42;;;13.70;;
23236;SDS011;11787;52.018;8.570;2022-12-07T02:08:02;17.08;;;13.60;;
23236;SDS011;11787;52.018;8.570;2022-12-07T02:13:50;16.08;;;12.52;;
23236;SDS011;11787;52.018;8.570;2022-12-07T02:16:38;18.67;;;11.45;;
23236;SDS011;11787;52.018;8.570;2022-12-07T02:24:52;15.45;;;12.25;;
23236;SDS011;11787;52.018;8.570;2022-12-07T02:27:34;20.17;;;11.48;;
23236;SDS011;11787;52.018;8.570;2022-12-07T02:30:14;16.30;;;12.13;;
23236;SDS011;11787;52.018;8.570;2022-12-07T02:41:33;16.65;;;11.35;;
23236;SDS011;11787;52.018;8.570;2022-12-07T02:44:02;16.67;;;10.63;;
23236;SDS011;11787;52.018;8.570;2022-12-07T02:49:53;14.15;;;10.40;;
23236;SDS011;11787;52.018;8.570;2022-12-07T02:52:20;16.30;;;9.48;;
23236;SDS011;11787;52.018;8.570;2022-12-07T02:54:45;14.55;;;9.10;;
23236;SDS011;11787;52.018;8.570;2022-12-07T03:00:36;14.63;;;8.48;;
23236;SDS011;11787;52.018;8.570;2022-12-07T03:03:15;11.63;;;7.28;;
23236;SDS011;11787;52.018;8.570;2022-12-07T03:06:03;13.82;;;8.32;;
23236;SDS011;11787;52.018;8.570;2022-12-07T03:08:47;14.63;;;8.48;;
23236;SDS011;11787;52.018;8.570;2022-12-07T03:11:22;15.20;;;8.63;;
23236;SDS011;11787;52.018;8.570;2022-12-07T03:14:02;14.88;;;7.65;;
23236;SDS011;11787;52.018;8.570;2022-12-07T03:16:40;16.52;;;7.32;;
23236;SDS011;11787;52.018;8.570;2022-12-07T03:19:18;12.88;;;7.10;;
23236;SDS011;11787;52.018;8.570;2022-12-07T03:21:47;12.60;;;7.65;;
23236;SDS011;11787;52.018;8.570;2022-12-07T03:24:19;14.13;;;7.18;;
23236;SDS011;11787;52.018;8.570;2022-12-07T03:26:51;15.25;;;7.30;;
23236;SDS011;11787;52.018;8.570;2022-12-07T03:29:27;12.82;;;7.35;;
23236;SDS011;11787;52.018;8.570;2022-12-07T03:32:02;13.10;;;6.07;;
23236;SDS011;11787;52.018;8.570;2022-12-07T03:37:19;10.52;;;6.22;;
23236;SDS011;11787;52.018;8.570;2022-12-07T03:42:39;11.77;;;6.63;;
23236;SDS011;11787;52.018;8.570;2022-12-07T03:45:05;11.65;;;7.00;;
23236;SDS011;11787;52.018;8.570;2022-12-07T03:47:37;13.43;;;7.28;;
23236;SDS011;11787;52.018;8.570;2022-12-07T03:55:31;11.48;;;6.85;;
23236;SDS011;11787;52.018;8.570;2022-12-07T03:58:02;10.13;;;6.43;;
23236;SDS011;11787;52.018;8.570;2022-12-07T04:00:31;11.20;;;6.95;;
23236;SDS011;11787;52.018;8.570;2022-12-07T04:02:57;11.20;;;6.60;;
23236;SDS011;11787;52.018;8.570;2022-12-07T04:05:23;11.88;;;6.22;;
23236;SDS011;11787;52.018;8.570;2022-12-07T04:07:49;11.50;;;6.22;;
23236;SDS011;11787;52.018;8.570;2022-12-07T04:10:14;13.57;;;6.88;;
23236;SDS011;11787;52.018;8.570;2022-12-07T04:12:40;11.23;;;6.38;;
23236;SDS011;11787;52.018;8.570;2022-12-07T04:15:06;14.05;;;6.63;;
23236;SDS011;11787;52.018;8.570;2022-12-07T04:17:32;10.43;;;6.28;;
23236;SDS011;11787;52.018;8.570;2022-12-07T04:19:57;11.60;;;6.25;;
23236;SDS011;11787;52.018;8.570;2022-12-07T04:22:23;15.68;;;7.28;;
23236;SDS011;11787;52.018;8.570;2022-12-07T04:24:48;9.13;;;6.78;;
23236;SDS011;11787;52.018;8.570;2022-12-07T04:27:14;10.88;;;6.82;;
23236;SDS011;11787;52.018;8.570;2022-12-07T04:29:40;11.88;;;7.28;;
23236;SDS011;11787;52.018;8.570;2022-12-07T04:32:05;10.23;;;6.57;;
23236;SDS011;11787;52.018;8.570;2022-12-07T04:37:53;12.23;;;5.75;;
23236;SDS011;11787;52.018;8.570;2022-12-07T04:40:18;11.48;;;6.45;;
23236;SDS011;11787;52.018;8.570;2022-12-07T04:42:44;14.32;;;6.45;;
23236;SDS011;11787;52.018;8.570;2022-12-07T04:45:09;12.50;;;6.40;;
23236;SDS011;11787;52.018;8.570;2022-12-07T04:47:35;9.55;;;6.03;;
23236;SDS011;11787;52.018;8.570;2022-12-07T04:50:00;13.80;;;6.70;;
23236;SDS011;11787;52.018;8.570;2022-12-07T04:52:26;11.98;;;5.47;;
23236;SDS011;11787;52.018;8.570;2022-12-07T04:54:52;13.35;;;6.72;;
23236;SDS011;11787;52.018;8.570;2022-12-07T04:57:17;15.18;;;5.95;;
23236;SDS011;11787;52.018;8.570;2022-12-07T04:59:43;11.55;;;6.88;;
23236;SDS011;11787;52.018;8.570;2022-12-07T05:02:08;8.73;;;5.45;;
23236;SDS011;11787;52.018;8.570;2022-12-07T05:04:34;10.18;;;5.95;;
23236;SDS011;11787;52.018;8.570;2022-12-07T05:06:59;10.73;;;6.10;;
23236;SDS011;11787;52.018;8.570;2022-12-07T05:09:25;12.23;;;6.38;;
23236;SDS011;11787;52.018;8.570;2022-12-07T05:11:51;14.50;;;6.15;;
23236;SDS011;11787;52.018;8.570;2022-12-07T05:14:17;10.68;;;5.82;;
23236;SDS011;11787;52.018;8.570;2022-12-07T05:16:45;12.38;;;6.25;;
23236;SDS011;11787;52.018;8.570;2022-12-07T05:19:13;11.88;;;6.53;;
23236;SDS011;11787;52.018;8.570;2022-12-07T05:21:39;12.40;;;5.45;;
23236;SDS011;11787;52.018;8.570;2022-12-07T05:24:06;12.32;;;5.75;;
23236;SDS011;11787;52.018;8.570;2022-12-07T05:26:32;16.17;;;6.88;;
23236;SDS011;11787;52.018;8.570;2022-12-07T05:28:58;11.50;;;6.47;;
23236;SDS011;11787;52.018;8.570;2022-12-07T05:31:24;10.73;;;6.30;;
23236;SDS011;11787;52.018;8.570;2022-12-07T05:33:50;15.60;;;7.00;;
23236;SDS011;11787;52.018;8.570;2022-12-07T05:36:16;16.52;;;7.72;;
23236;SDS011;11787;52.018;8.570;2022-12-07T05:38:41;17.65;;;7.72;;
23236;SDS011;11787;52.018;8.570;2022-12-07T05:41:07;13.40;;;7.07;;
23236;SDS011;11787;52.018;8.570;2022-12-07T05:43:53;15.93;;;7.00;;
23236;SDS011;11787;52.018;8.570;2022-12-07T05:46:20;10.75;;;6.75;;
23236;SDS011;11787;52.018;8.570;2022-12-07T05:48:45;12.55;;;6.50;;
23236;SDS011;11787;52.018;8.570;2022-12-07T05:51:11;13.93;;;7.22;;
23236;SDS011;11787;52.018;8.570;2022-12-07T05:53:36;12.90;;;6.63;;
23236;SDS011;11787;52.018;8.570;2022-12-07T05:56:02;9.90;;;6.07;;
23236;SDS011;11787;52.018;8.570;2022-12-07T05:58:27;12.00;;;5.93;;
23236;SDS011;11787;52.018;8.570;2022-12-07T06:01:12;10.23;;;6.20;;
23236;SDS011;11787;52.018;8.570;2022-12-07T06:03:37;9.13;;;5.80;;
23236;SDS011;11787;52.018;8.570;2022-12-07T06:06:03;9.88;;;6.03;;
23236;SDS011;11787;52.018;8.570;2022-12-07T06:08:28;10.35;;;4.90;;
23236;SDS011;11787;52.018;8.570;2022-12-07T06:10:54;10.75;;;5.65;;
23236;SDS011;11787;52.018;8.570;2022-12-07T06:13:39;9.93;;;5.43;;
23236;SDS011;11787;52.018;8.570;2022-12-07T06:16:05;11.52;;;5.43;;
23236;SDS011;11787;52.018;8.570;2022-12-07T06:18:31;7.40;;;4.88;;
23236;SDS011;11787;52.018;8.570;2022-12-07T06:20:56;12.90;;;5.80;;
23236;SDS011;11787;52.018;8.570;2022-12-07T06:23:22;11.00;;;5.70;;
23236;SDS011;11787;52.018;8.570;2022-12-07T06:25:47;12.27;;;5.32;;
23236;SDS011;11787;52.018;8.570;2022-12-07T06:28:13;14.88;;;5.82;;
23236;SDS011;11787;52.018;8.570;2022-12-07T06:30:39;13.32;;;6.25;;
23236;SDS011;11787;52.018;8.570;2022-12-07T06:33:04;9.02;;;5.32;;
23236;SDS011;11787;52.018;8.570;2022-12-07T06:35:31;12.45;;;5.15;;
23236;SDS011;11787;52.018;8.570;2022-12-07T06:37:58;9.93;;;5.35;;
23236;SDS011;11787;52.018;8.570;2022-12-07T06:40:23;11.77;;;5.40;;
23236;SDS011;11787;52.018;8.570;2022-12-07T06:42:49;10.40;;;5.30;;
23236;SDS011;11787;52.018;8.570;2022-12-07T06:45:15;12.85;;;5.53;;
23236;SDS011;11787;52.018;8.570;2022-12-07T06:47:40;9.30;;;4.32;;
23236;SDS011;11787;52.018;8.570;2022-12-07T06:50:06;11.95;;;4.82;;
23236;SDS011;11787;52.018;8.570;2022-12-07T06:52:32;10.65;;;5.10;;
23236;SDS011;11787;52.018;8.570;2022-12-07T06:54:58;10.02;;;4.88;;
23236;SDS011;11787;52.018;8.570;2022-12-07T06:57:24;12.35;;;5.43;;
23236;SDS011;11787;52.018;8.570;2022-12-07T06:59:50;11.95;;;5.38;;
23236;SDS011;11787;52.018;8.570;2022-12-07T07:02:16;7.85;;;4.13;;
23236;SDS011;11787;52.018;8.570;2022-12-07T07:04:41;11.38;;;5.25;;
23236;SDS011;11787;52.018;8.570;2022-12-07T07:07:07;9.57;;;5.13;;
23236;SDS011;11787;52.018;8.570;2022-12-07T07:09:33;11.50;;;4.35;;
23236;SDS011;11787;52.018;8.570;2022-12-07T07:11:58;8.88;;;5.25;;
23236;SDS011;11787;52.018;8.570;2022-12-07T07:14:24;9.23;;;4.20;;
23236;SDS011;11787;52.018;8.570;2022-12-07T07:16:49;11.07;;;4.78;;
23236;SDS011;11787;52.018;8.570;2022-12-07T07:19:15;6.13;;;3.92;;
23236;SDS011;11787;52.018;8.570;2022-12-07T07:21:40;8.25;;;4.65;;
23236;SDS011;11787;52.018;8.570;2022-12-07T07:24:06;9.63;;;4.10;;
23236;SDS011;11787;52.018;8.570;2022-12-07T07:26:32;9.07;;;3.53;;
23236;SDS011;11787;52.018;8.570;2022-12-07T07:28:57;8.27;;;3.75;;
23236;SDS011;11787;52.018;8.570;2022-12-07T07:31:23;12.98;;;3.97;;
23236;SDS011;11787;52.018;8.570;2022-12-07T07:33:48;11.73;;;4.00;;
23236;SDS011;11787;52.018;8.570;2022-12-07T07:36:14;8.07;;;3.63;;
23236;SDS011;11787;52.018;8.570;2022-12-07T07:38:39;11.43;;;3.78;;
23236;SDS011;11787;52.018;8.570;2022-12-07T07:41:05;8.45;;;3.70;;
23236;SDS011;11787;52.018;8.570;2022-12-07T07:43:31;7.70;;;4.22;;
23236;SDS011;11787;52.018;8.570;2022-12-07T07:45:57;9.38;;;3.63;;
23236;SDS011;11787;52.018;8.570;2022-12-07T07:48:23;13.15;;;4.30;;
23236;SDS011;11787;52.018;8.570;2022-12-07T07:50:50;6.90;;;3.38;;
23236;SDS011;11787;52.018;8.570;2022-12-07T07:53:16;14.63;;;5.90;;
23236;SDS011;11787;52.018;8.570;2022-12-07T07:55:41;8.18;;;3.67;;
23236;SDS011;11787;52.018;8.570;2022-12-07T07:58:14;10.20;;;3.85;;
23236;SDS011;11787;52.018;8.570;2022-12-07T08:00:40;7.95;;;3.53;;
23236;SDS011;11787;52.018;8.570;2022-12-07T08:03:05;11.88;;;3.85;;
23236;SDS011;11787;52.018;8.570;2022-12-07T08:05:31;8.93;;;4.25;;
23236;SDS011;11787;52.018;8.570;2022-12-07T08:11:18;9.85;;;3.00;;
23236;SDS011;11787;52.018;8.570;2022-12-07T08:13:47;8.63;;;3.88;;
23236;SDS011;11787;52.018;8.570;2022-12-07T08:16:13;9.40;;;3.03;;
23236;SDS011;11787;52.018;8.570;2022-12-07T08:18:40;8.35;;;3.17;;
23236;SDS011;11787;52.018;8.570;2022-12-07T08:21:07;9.80;;;3.25;;
23236;SDS011;11787;52.018;8.570;2022-12-07T08:23:36;9.23;;;3.20;;
23236;SDS011;11787;52.018;8.570;2022-12-07T08:26:07;7.82;;;2.60;;
23236;SDS011;11787;52.018;8.570;2022-12-07T08:28:35;11.73;;;3.10;;
23236;SDS011;11787;52.018;8.570;2022-12-07T08:31:02;8.07;;;3.28;;
23236;SDS011;11787;52.018;8.570;2022-12-07T08:33:30;8.65;;;3.15;;
23236;SDS011;11787;52.018;8.570;2022-12-07T08:36:09;8.68;;;3.03;;
23236;SDS011;11787;52.018;8.570;2022-12-07T08:38:36;5.10;;;3.22;;
23236;SDS011;11787;52.018;8.570;2022-12-07T08:41:03;8.80;;;2.95;;
23236;SDS011;11787;52.018;8.570;2022-12-07T08:43:29;9.77;;;3.05;;
23236;SDS011;11787;52.018;8.570;2022-12-07T08:46:06;9.02;;;2.92;;
23236;SDS011;11787;52.018;8.570;2022-12-07T08:51:54;6.70;;;3.17;;
23236;SDS011;11787;52.018;8.570;2022-12-07T08:54:20;9.45;;;3.10;;
23236;SDS011;11787;52.018;8.570;2022-12-07T08:56:47;7.90;;;3.05;;
23236;SDS011;11787;52.018;8.570;2022-12-07T08:59:15;9.93;;;3.25;;
23236;SDS011;11787;52.018;8.570;2022-12-07T09:01:44;7.32;;;2.60;;
23236;SDS011;11787;52.018;8.570;2022-12-07T09:04:10;9.13;;;3.22;;
23236;SDS011;11787;52.018;8.570;2022-12-07T09:06:36;9.07;;;3.13;;
23236;SDS011;11787;52.018;8.570;2022-12-07T09:09:02;7.65;;;2.88;;
23236;SDS011;11787;52.018;8.570;2022-12-07T09:11:28;7.85;;;2.75;;
23236;SDS011;11787;52.018;8.570;2022-12-07T09:13:55;6.20;;;2.92;;
23236;SDS011;11787;52.018;8.570;2022-12-07T09:16:21;7.75;;;3.05;;
23236;SDS011;11787;52.018;8.570;2022-12-07T09:18:46;7.78;;;2.83;;
23236;SDS011;11787;52.018;8.570;2022-12-07T09:21:12;10.93;;;2.50;;
23236;SDS011;11787;52.018;8.570;2022-12-07T09:23:37;6.38;;;1.95;;
23236;SDS011;11787;52.018;8.570;2022-12-07T09:26:03;5.00;;;2.10;;
23236;SDS011;11787;52.018;8.570;2022-12-07T09:28:32;11.20;;;2.78;;
23236;SDS011;11787;52.018;8.570;2022-12-07T09:30:58;6.65;;;1.95;;
23236;SDS011;11787;52.018;8.570;2022-12-07T09:33:23;9.95;;;2.50;;
23236;SDS011;11787;52.018;8.570;2022-12-07T09:35:50;7.25;;;2.05;;
23236;SDS011;11787;52.018;8.570;2022-12-07T09:41:41;9.00;;;2.40;;
23236;SDS011;11787;52.018;8.570;2022-12-07T09:44:13;5.85;;;2.30;;
23236;SDS011;11787;52.018;8.570;2022-12-07T09:46:43;4.75;;;2.53;;
23236;SDS011;11787;52.018;8.570;2022-12-07T09:49:11;7.82;;;2.95;;
23236;SDS011;11787;52.018;8.570;2022-12-07T09:51:41;7.60;;;2.22;;
23236;SDS011;11787;52.018;8.570;2022-12-07T09:57:32;6.85;;;2.70;;
23236;SDS011;11787;52.018;8.570;2022-12-07T10:00:04;6.50;;;1.85;;
23236;SDS011;11787;52.018;8.570;2022-12-07T10:02:42;4.75;;;2.60;;
23236;SDS011;11787;52.018;8.570;2022-12-07T10:05:16;10.20;;;3.38;;
23236;SDS011;11787;52.018;8.570;2022-12-07T10:07:44;9.48;;;2.67;;
23236;SDS011;11787;52.018;8.570;2022-12-07T10:10:23;10.63;;;2.45;;
23236;SDS011;11787;52.018;8.570;2022-12-07T10:13:01;11.25;;;2.58;;
23236;SDS011;11787;52.018;8.570;2022-12-07T10:18:33;9.02;;;2.25;;
23236;SDS011;11787;52.018;8.570;2022-12-07T10:23:34;14.23;;;3.08;;
23236;SDS011;11787;52.018;8.570;2022-12-07T10:28:51;11.10;;;3.08;;
23236;SDS011;11787;52.018;8.570;2022-12-07T10:31:20;13.35;;;2.70;;
23236;SDS011;11787;52.018;8.570;2022-12-07T10:33:57;10.85;;;2.83;;
23236;SDS011;11787;52.018;8.570;2022-12-07T10:39:03;7.15;;;2.33;;
23236;SDS011;11787;52.018;8.570;2022-12-07T10:41:29;10.32;;;2.22;;
23236;SDS011;11787;52.018;8.570;2022-12-07T10:43:56;7.85;;;2.30;;
23236;SDS011;11787;52.018;8.570;2022-12-07T10:54:48;9.00;;;2.00;;
23236;SDS011;11787;52.018;8.570;2022-12-07T10:57:39;8.13;;;1.95;;
23236;SDS011;11787;52.018;8.570;2022-12-07T11:00:48;11.00;;;2.40;;
23236;SDS011;11787;52.018;8.570;2022-12-07T11:03:41;10.10;;;2.22;;
23236;SDS011;11787;52.018;8.570;2022-12-07T11:29:49;6.75;;;2.40;;
23236;SDS011;11787;52.018;8.570;2022-12-07T11:36:02;10.10;;;2.23;;
23236;SDS011;11787;52.018;8.570;2022-12-07T11:38:37;5.60;;;1.75;;
23236;SDS011;11787;52.018;8.570;2022-12-07T11:41:10;5.68;;;2.25;;
23236;SDS011;11787;52.018;8.570;2022-12-07T11:43:40;5.55;;;1.63;;
23236;SDS011;11787;52.018;8.570;2022-12-07T11:46:17;7.45;;;1.58;;
23236;SDS011;11787;52.018;8.570;2022-12-07T11:51:15;7.78;;;1.73;;
23236;SDS011;11787;52.018;8.570;2022-12-07T11:53:46;7.93;;;1.80;;
23236;SDS011;11787;52.018;8.570;2022-12-07T11:56:19;10.90;;;1.90;;
23236;SDS011;11787;52.018;8.570;2022-12-07T11:59:02;5.45;;;1.73;;
23236;SDS011;11787;52.018;8.570;2022-12-07T12:06:35;4.53;;;1.40;;
23236;SDS011;11787;52.018;8.570;2022-12-07T12:09:17;7.47;;;1.45;;
23236;SDS011;11787;52.018;8.570;2022-12-07T12:22:55;6.63;;;1.48;;
23236;SDS011;11787;52.018;8.570;2022-12-07T12:25:29;7.60;;;1.98;;
23236;SDS011;11787;52.018;8.570;2022-12-07T12:28:04;4.65;;;1.58;;
23236;SDS011;11787;52.018;8.570;2022-12-07T12:30:37;5.07;;;1.42;;
23236;SDS011;11787;52.018;8.570;2022-12-07T12:57:33;6.35;;;1.88;;
23236;SDS011;11787;52.018;8.570;2022-12-07T13:00:01;4.05;;;1.20;;
23236;SDS011;11787;52.018;8.570;2022-12-07T13:02:53;6.43;;;1.70;;
23236;SDS011;11787;52.018;8.570;2022-12-07T13:05:27;7.63;;;2.25;;
23236;SDS011;11787;52.018;8.570;2022-12-07T13:07:56;6.93;;;1.60;;
23236;SDS011;11787;52.018;8.570;2022-12-07T13:31:38;7.40;;;2.08;;
23236;SDS011;11787;52.018;8.570;2022-12-07T13:34:05;4.97;;;1.45;;
23236;SDS011;11787;52.018;8.570;2022-12-07T13:36:49;4.68;;;1.25;;
23236;SDS011;11787;52.018;8.570;2022-12-07T13:39:18;4.85;;;1.40;;
23236;SDS011;11787;52.018;8.570;2022-12-07T13:41:48;7.93;;;1.58;;
23236;SDS011;11787;52.018;8.570;2022-12-07T13:44:17;5.78;;;1.50;;
23236;SDS011;11787;52.018;8.570;2022-12-07T13:49:31;3.53;;;1.48;;
23236;SDS011;11787;52.018;8.570;2022-12-07T13:52:20;4.18;;;1.40;;
23236;SDS011;11787;52.018;8.570;2022-12-07T13:57:26;6.00;;;1.55;;
23236;SDS011;11787;52.018;8.570;2022-12-07T13:59:53;5.38;;;1.40;;
23236;SDS011;11787;52.018;8.570;2022-12-07T14:02:20;11.15;;;1.77;;
23236;SDS011;11787;52.018;8.570;2022-12-07T14:04:49;6.25;;;1.38;;
23236;SDS011;11787;52.018;8.570;2022-12-07T14:07:21;6.93;;;1.63;;
23236;SDS011;11787;52.018;8.570;2022-12-07T14:12:26;5.88;;;1.63;;
23236;SDS011;11787;52.018;8.570;2022-12-07T14:14:52;3.10;;;1.13;;
23236;SDS011;11787;52.018;8.570;2022-12-07T14:17:21;6.45;;;1.17;;
23236;SDS011;11787;52.018;8.570;2022-12-07T14:22:36;4.13;;;1.40;;
23236;SDS011;11787;52.018;8.570;2022-12-07T14:25:16;8.10;;;1.42;;
23236;SDS011;11787;52.018;8.570;2022-12-07T14:27:59;5.95;;;1.60;;
23236;SDS011;11787;52.018;8.570;2022-12-07T14:30:27;5.32;;;1.27;;
23236;SDS011;11787;52.018;8.570;2022-12-07T14:32:58;9.40;;;2.42;;
23236;SDS011;11787;52.018;8.570;2022-12-07T14:35:26;6.30;;;2.22;;
23236;SDS011;11787;52.018;8.570;2022-12-07T14:37:52;10.05;;;2.28;;
23236;SDS011;11787;52.018;8.570;2022-12-07T14:40:19;6.03;;;2.13;;
23236;SDS011;11787;52.018;8.570;2022-12-07T14:42:52;5.87;;;1.60;;
23236;SDS011;11787;52.018;8.570;2022-12-07T14:45:22;5.05;;;1.58;;
23236;SDS011;11787;52.018;8.570;2022-12-07T14:47:48;4.75;;;1.60;;
23236;SDS011;11787;52.018;8.570;2022-12-07T14:53:36;7.97;;;1.52;;
23236;SDS011;11787;52.018;8.570;2022-12-07T14:56:06;10.85;;;1.85;;
23236;SDS011;11787;52.018;8.570;2022-12-07T14:58:32;6.07;;;1.77;;
23236;SDS011;11787;52.018;8.570;2022-12-07T15:00:58;10.00;;;2.40;;
23236;SDS011;11787;52.018;8.570;2022-12-07T15:03:24;9.98;;;2.00;;
23236;SDS011;11787;52.018;8.570;2022-12-07T15:05:49;10.35;;;2.30;;
23236;SDS011;11787;52.018;8.570;2022-12-07T15:08:15;6.10;;;1.65;;
23236;SDS011;11787;52.018;8.570;2022-12-07T15:10:40;6.88;;;1.70;;
23236;SDS011;11787;52.018;8.570;2022-12-07T15:13:06;5.47;;;1.83;;
23236;SDS011;11787;52.018;8.570;2022-12-07T15:18:17;5.18;;;1.50;;
23236;SDS011;11787;52.018;8.570;2022-12-07T15:20:44;8.68;;;1.85;;
23236;SDS011;11787;52.018;8.570;2022-12-07T15:23:10;8.43;;;1.67;;
23236;SDS011;11787;52.018;8.570;2022-12-07T15:25:36;6.20;;;1.77;;
23236;SDS011;11787;52.018;8.570;2022-12-07T15:28:05;6.80;;;1.52;;
23236;SDS011;11787;52.018;8.570;2022-12-07T15:30:30;9.35;;;2.25;;
23236;SDS011;11787;52.018;8.570;2022-12-07T15:32:56;4.90;;;1.52;;
23236;SDS011;11787;52.018;8.570;2022-12-07T15:35:21;9.75;;;2.00;;
23236;SDS011;11787;52.018;8.570;2022-12-07T15:37:47;5.90;;;2.10;;
23236;SDS011;11787;52.018;8.570;2022-12-07T15:40:13;4.00;;;1.25;;
23236;SDS011;11787;52.018;8.570;2022-12-07T15:42:39;7.35;;;1.83;;
23236;SDS011;11787;52.018;8.570;2022-12-07T15:45:05;8.52;;;1.98;;
23236;SDS011;11787;52.018;8.570;2022-12-07T15:47:36;8.35;;;2.28;;
23236;SDS011;11787;52.018;8.570;2022-12-07T15:50:05;12.93;;;2.30;;
23236;SDS011;11787;52.018;8.570;2022-12-07T15:52:33;6.22;;;2.10;;
23236;SDS011;11787;52.018;8.570;2022-12-07T15:54:58;9.50;;;1.92;;
23236;SDS011;11787;52.018;8.570;2022-12-07T15:57:30;7.18;;;2.25;;
23236;SDS011;11787;52.018;8.570;2022-12-07T15:59:57;8.10;;;2.45;;
23236;SDS011;11787;52.018;8.570;2022-12-07T16:02:23;8.07;;;2.22;;
23236;SDS011;11787;52.018;8.570;2022-12-07T16:04:49;7.68;;;2.17;;
23236;SDS011;11787;52.018;8.570;2022-12-07T16:07:15;6.38;;;2.58;;
23236;SDS011;11787;52.018;8.570;2022-12-07T16:09:43;10.20;;;2.88;;
23236;SDS011;11787;52.018;8.570;2022-12-07T16:12:09;9.32;;;1.98;;
23236;SDS011;11787;52.018;8.570;2022-12-07T16:14:35;3.40;;;0.80;;
23236;SDS011;11787;52.018;8.570;2022-12-07T16:17:02;1.40;;;0.70;;
23236;SDS011;11787;52.018;8.570;2022-12-07T16:19:29;3.53;;;0.80;;
23236;SDS011;11787;52.018;8.570;2022-12-07T16:21:55;1.75;;;0.70;;
23236;SDS011;11787;52.018;8.570;2022-12-07T16:24:21;3.13;;;1.27;;
23236;SDS011;11787;52.018;8.570;2022-12-07T16:26:47;3.08;;;0.60;;
23236;SDS011;11787;52.018;8.570;2022-12-07T16:29:13;4.55;;;1.00;;
23236;SDS011;11787;52.018;8.570;2022-12-07T16:31:38;4.40;;;1.10;;
23236;SDS011;11787;52.018;8.570;2022-12-07T16:34:04;4.43;;;1.10;;
23236;SDS011;11787;52.018;8.570;2022-12-07T16:36:31;4.95;;;0.90;;
23236;SDS011;11787;52.018;8.570;2022-12-07T16:38:57;1.98;;;0.85;;
23236;SDS011;11787;52.018;8.570;2022-12-07T16:41:24;2.78;;;1.15;;
23236;SDS011;11787;52.018;8.570;2022-12-07T16:43:50;2.80;;;0.80;;
23236;SDS011;11787;52.018;8.570;2022-12-07T16:46:15;3.42;;;1.42;;
23236;SDS011;11787;52.018;8.570;2022-12-07T16:48:41;4.35;;;1.60;;
23236;SDS011;11787;52.018;8.570;2022-12-07T16:51:09;6.32;;;2.40;;
23236;SDS011;11787;52.018;8.570;2022-12-07T16:53:36;3.72;;;2.42;;
23236;SDS011;11787;52.018;8.570;2022-12-07T16:56:03;7.97;;;1.92;;
23236;SDS011;11787;52.018;8.570;2022-12-07T16:58:34;10.48;;;3.25;;
23236;SDS011;11787;52.018;8.570;2022-12-07T17:04:21;8.02;;;3.40;;
23236;SDS011;11787;52.018;8.570;2022-12-07T17:06:47;7.53;;;3.30;;
23236;SDS011;11787;52.018;8.570;2022-12-07T17:09:12;9.80;;;3.28;;
23236;SDS011;11787;52.018;8.570;2022-12-07T17:11:38;9.98;;;3.63;;
23236;SDS011;11787;52.018;8.570;2022-12-07T17:14:04;10.55;;;3.83;;
23236;SDS011;11787;52.018;8.570;2022-12-07T17:20:10;8.88;;;3.55;;
23236;SDS011;11787;52.018;8.570;2022-12-07T17:22:36;7.20;;;3.17;;
23236;SDS011;11787;52.018;8.570;2022-12-07T17:25:03;9.20;;;3.58;;
23236;SDS011;11787;52.018;8.570;2022-12-07T17:27:29;8.68;;;3.30;;
23236;SDS011;11787;52.018;8.570;2022-12-07T17:29:55;5.63;;;2.95;;
23236;SDS011;11787;52.018;8.570;2022-12-07T17:32:21;8.05;;;3.22;;
23236;SDS011;11787;52.018;8.570;2022-12-07T17:34:47;10.43;;;2.88;;
23236;SDS011;11787;52.018;8.570;2022-12-07T17:37:12;8.07;;;3.25;;
23236;SDS011;11787;52.018;8.570;2022-12-07T17:39:38;8.85;;;3.22;;
23236;SDS011;11787;52.018;8.570;2022-12-07T17:42:04;12.13;;;3.95;;
23236;SDS011;11787;52.018;8.570;2022-12-07T17:44:48;9.82;;;4.05;;
23236;SDS011;11787;52.018;8.570;2022-12-07T17:47:14;8.70;;;3.58;;
23236;SDS011;11787;52.018;8.570;2022-12-07T17:49:42;14.50;;;4.10;;
23236;SDS011;11787;52.018;8.570;2022-12-07T17:52:09;9.52;;;3.72;;
23236;SDS011;11787;52.018;8.570;2022-12-07T17:54:53;10.38;;;3.75;;
23236;SDS011;11787;52.018;8.570;2022-12-07T17:57:18;12.00;;;4.60;;
23236;SDS011;11787;52.018;8.570;2022-12-07T17:59:44;9.27;;;3.72;;
23236;SDS011;11787;52.018;8.570;2022-12-07T18:02:09;12.50;;;3.63;;